createdAt,value
2018-06-16T00:00:35.766Z,0
2018-06-16T00:01:35.748Z,0
2018-06-16T00:02:35.498Z,0
2018-06-16T00:03:35.771Z,0
2018-06-16T00:04:35.516Z,0
2018-06-16T00:05:35.577Z,0
2018-06-16T00:06:35.599Z,0
2018-06-16T00:07:35.777Z,0
2018-06-16T00:08:35.757Z,0
2018-06-16T00:09:35.764Z,0
2018-06-16T00:10:35.518Z,0
2018-06-16T00:11:37.109Z,0
2018-06-16T00:12:35.797Z,0
2018-06-16T00:13:35.739Z,0
2018-06-16T00:14:35.270Z,0
2018-06-16T00:15:35.787Z,0
2018-06-16T00:16:35.544Z,0
2018-06-16T00:17:35.240Z,0
2018-06-16T00:18:35.784Z,0
2018-06-16T00:19:35.758Z,0
2018-06-16T00:20:35.483Z,0
2018-06-16T00:21:35.754Z,0
2018-06-16T00:22:35.561Z,0
2018-06-16T00:23:36.023Z,0
2018-06-16T00:24:35.771Z,0
2018-06-16T00:25:35.252Z,0
2018-06-16T00:26:35.501Z,0
2018-06-16T00:27:35.522Z,0
2018-06-16T00:28:35.512Z,0
2018-06-16T00:29:35.766Z,0
2018-06-16T00:30:35.747Z,0
2018-06-16T00:31:35.512Z,0
2018-06-16T00:32:35.738Z,0
2018-06-16T00:33:35.537Z,0
2018-06-16T00:34:35.758Z,0
2018-06-16T00:35:36.021Z,0
2018-06-16T00:36:35.569Z,0
2018-06-16T00:37:36.022Z,0
2018-06-16T00:38:35.770Z,0
2018-06-16T00:39:35.517Z,0
2018-06-16T00:40:35.765Z,0
2018-06-16T00:41:36.080Z,0
2018-06-16T00:42:35.532Z,0
2018-06-16T00:43:35.536Z,0
2018-06-16T00:44:35.485Z,0
2018-06-16T00:45:35.747Z,0
2018-06-16T00:46:36.555Z,0
2018-06-16T00:47:36.034Z,0
2018-06-16T00:48:35.744Z,0
2018-06-16T00:49:35.234Z,0
2018-06-16T00:50:35.493Z,0
2018-06-16T00:51:35.231Z,0
2018-06-16T00:52:35.748Z,0
2018-06-16T00:53:35.515Z,0
2018-06-16T00:54:35.757Z,0
2018-06-16T00:55:35.744Z,0
2018-06-16T00:56:35.729Z,0
2018-06-16T00:57:35.491Z,0
2018-06-16T00:58:36.007Z,0
2018-06-16T00:59:35.746Z,0
2018-06-16T01:00:35.751Z,0
2018-06-16T01:01:35.278Z,0
2018-06-16T01:02:35.991Z,0
2018-06-16T01:03:35.260Z,0
2018-06-16T01:04:35.994Z,0
2018-06-16T01:05:35.498Z,0
2018-06-16T01:06:35.741Z,0
2018-06-16T01:07:35.509Z,0
2018-06-16T01:08:35.261Z,0
2018-06-16T01:09:35.511Z,0
2018-06-16T01:10:36.024Z,0
2018-06-16T01:11:36.284Z,0
2018-06-16T01:12:35.770Z,0
2018-06-16T01:13:35.581Z,0
2018-06-16T01:14:35.517Z,0
2018-06-16T01:15:36.067Z,0
2018-06-16T01:16:35.742Z,0
2018-06-16T01:17:35.752Z,0
2018-06-16T01:18:35.504Z,0
2018-06-16T01:19:35.507Z,0
2018-06-16T01:20:35.499Z,0
2018-06-16T01:21:35.996Z,0
2018-06-16T01:22:35.489Z,0
2018-06-16T01:23:35.487Z,0
2018-06-16T01:24:35.523Z,0
2018-06-16T01:25:35.234Z,0
2018-06-16T01:26:35.736Z,0
2018-06-16T01:27:35.728Z,0
2018-06-16T01:28:35.482Z,0
2018-06-16T01:29:35.780Z,0
2018-06-16T01:30:35.753Z,0
2018-06-16T01:31:35.731Z,0
2018-06-16T01:32:35.494Z,0
2018-06-16T01:33:35.742Z,0
2018-06-16T01:34:35.478Z,0
2018-06-16T01:35:35.741Z,0
2018-06-16T01:36:35.501Z,0
2018-06-16T01:37:35.235Z,0
2018-06-16T01:38:35.993Z,0
2018-06-16T01:39:35.731Z,0
2018-06-16T01:40:35.747Z,0
2018-06-16T01:41:35.737Z,0
2018-06-16T01:42:37.956Z,0
2018-06-16T01:43:35.507Z,0
2018-06-16T01:44:35.308Z,0
2018-06-16T01:45:35.222Z,0
2018-06-16T01:46:35.771Z,0
2018-06-16T01:47:35.971Z,0
2018-06-16T01:48:34.986Z,0
2018-06-16T01:49:35.466Z,0
2018-06-16T01:50:35.780Z,0
2018-06-16T01:51:36.042Z,0
2018-06-16T01:52:35.718Z,0
2018-06-16T01:53:35.230Z,0
2018-06-16T01:54:35.721Z,0
2018-06-16T01:55:35.215Z,0
2018-06-16T01:56:35.744Z,0
2018-06-16T01:57:35.738Z,0
2018-06-16T01:58:35.722Z,0
2018-06-16T01:59:35.976Z,0
2018-06-16T02:00:35.483Z,0
2018-06-16T02:01:34.973Z,0
2018-06-16T02:02:35.453Z,0
2018-06-16T02:03:35.726Z,0
2018-06-16T02:04:35.752Z,0
2018-06-16T02:05:35.793Z,0
2018-06-16T02:06:35.468Z,0
2018-06-16T02:07:36.263Z,0
2018-06-16T02:08:35.462Z,0
2018-06-16T02:09:34.960Z,0
2018-06-16T02:10:35.456Z,0
2018-06-16T02:11:35.206Z,0
2018-06-16T02:12:35.484Z,0
2018-06-16T02:13:35.768Z,0
2018-06-16T02:14:34.951Z,0
2018-06-16T02:15:35.961Z,0
2018-06-16T02:16:35.716Z,0
2018-06-16T02:17:35.506Z,0
2018-06-16T02:18:35.495Z,0
2018-06-16T02:19:35.735Z,0
2018-06-16T02:20:35.718Z,0
2018-06-16T02:21:35.753Z,0
2018-06-16T02:22:35.748Z,0
2018-06-16T02:23:35.815Z,0
2018-06-16T02:24:35.462Z,0
2018-06-16T02:25:35.195Z,0
2018-06-16T02:26:35.714Z,0
2018-06-16T02:27:36.322Z,0
2018-06-16T02:28:35.216Z,0
2018-06-16T02:29:35.700Z,0
2018-06-16T02:30:35.472Z,0
2018-06-16T02:31:35.957Z,0
2018-06-16T02:32:35.467Z,0
2018-06-16T02:33:35.961Z,0
2018-06-16T02:34:35.847Z,0
2018-06-16T02:35:35.484Z,0
2018-06-16T02:36:35.433Z,0
2018-06-16T02:37:35.968Z,0
2018-06-16T02:38:35.719Z,0
2018-06-16T02:39:35.446Z,0
2018-06-16T02:40:35.942Z,0
2018-06-16T02:41:35.465Z,0
2018-06-16T02:42:35.746Z,0
2018-06-16T02:43:35.695Z,0
2018-06-16T02:44:35.969Z,0
2018-06-16T02:45:35.681Z,0
2018-06-16T02:46:35.433Z,0
2018-06-16T02:47:35.942Z,0
2018-06-16T02:48:35.449Z,0
2018-06-16T02:49:35.689Z,0
2018-06-16T02:50:36.570Z,0
2018-06-16T02:51:36.088Z,0
2018-06-16T02:52:35.455Z,0
2018-06-16T02:53:35.438Z,0
2018-06-16T02:54:35.455Z,0
2018-06-16T02:55:35.698Z,0
2018-06-16T02:56:35.678Z,0
2018-06-16T02:57:34.947Z,0
2018-06-16T02:58:35.445Z,0
2018-06-16T02:59:35.700Z,0
2018-06-16T03:00:35.674Z,0
2018-06-16T03:01:35.663Z,0
2018-06-16T03:02:35.670Z,0
2018-06-16T03:03:35.675Z,0
2018-06-16T03:04:35.700Z,0
2018-06-16T03:05:35.939Z,0
2018-06-16T03:06:35.935Z,0
2018-06-16T03:07:35.430Z,0
2018-06-16T03:08:35.667Z,0
2018-06-16T03:09:35.418Z,5
2018-06-16T03:10:35.662Z,5
2018-06-16T03:11:35.925Z,5
2018-06-16T03:12:35.400Z,5
2018-06-16T03:13:35.702Z,5
2018-06-16T03:14:35.151Z,5
2018-06-16T03:15:35.393Z,5
2018-06-16T03:16:35.661Z,5
2018-06-16T03:17:35.902Z,5
2018-06-16T03:18:35.175Z,10
2018-06-16T03:19:35.164Z,10
2018-06-16T03:20:35.644Z,10
2018-06-16T03:21:35.397Z,10
2018-06-16T03:22:35.659Z,10
2018-06-16T03:23:36.387Z,10
2018-06-16T03:24:35.384Z,15
2018-06-16T03:25:35.879Z,15
2018-06-16T03:26:35.651Z,15
2018-06-16T03:27:35.794Z,15
2018-06-16T03:28:35.483Z,20
2018-06-16T03:29:35.388Z,20
2018-06-16T03:30:35.149Z,20
2018-06-16T03:31:35.928Z,20
2018-06-16T03:32:35.127Z,20
2018-06-16T03:33:35.637Z,25
2018-06-16T03:34:35.379Z,25
2018-06-16T03:35:35.623Z,25
2018-06-16T03:36:36.176Z,30
2018-06-16T03:37:35.900Z,30
2018-06-16T03:38:35.127Z,30
2018-06-16T03:39:35.378Z,30
2018-06-16T03:40:35.649Z,35
2018-06-16T03:41:35.434Z,35
2018-06-16T03:42:38.842Z,35
2018-06-16T03:43:35.962Z,40
2018-06-16T03:44:35.628Z,40
2018-06-16T03:45:35.623Z,40
2018-06-16T03:46:35.381Z,45
2018-06-16T03:47:35.624Z,45
2018-06-16T03:48:35.391Z,45
2018-06-16T03:49:35.615Z,50
2018-06-16T03:50:35.668Z,70
2018-06-16T03:51:35.632Z,90
2018-06-16T03:52:35.604Z,100
2018-06-16T03:53:35.620Z,110
2018-06-16T03:54:35.381Z,110
2018-06-16T03:55:35.625Z,115
2018-06-16T03:56:35.358Z,120
2018-06-16T03:57:35.612Z,125
2018-06-16T03:58:35.372Z,130
2018-06-16T03:59:35.350Z,135
2018-06-16T04:00:35.629Z,135
2018-06-16T04:01:35.869Z,145
2018-06-16T04:02:35.865Z,145
2018-06-16T04:03:35.601Z,150
2018-06-16T04:04:35.611Z,155
2018-06-16T04:05:35.636Z,160
2018-06-16T04:06:35.354Z,165
2018-06-16T04:07:35.876Z,170
2018-06-16T04:08:35.864Z,170
2018-06-16T04:09:35.382Z,170
2018-06-16T04:10:35.381Z,175
2018-06-16T04:11:35.628Z,180
2018-06-16T04:12:35.391Z,185
2018-06-16T04:13:35.881Z,185
2018-06-16T04:14:35.361Z,185
2018-06-16T04:15:35.914Z,190
2018-06-16T04:16:35.619Z,195
2018-06-16T04:17:35.906Z,200
2018-06-16T04:18:35.401Z,200
2018-06-16T04:19:35.177Z,205
2018-06-16T04:20:35.389Z,210
2018-06-16T04:21:35.394Z,215
2018-06-16T04:22:35.652Z,215
2018-06-16T04:23:35.664Z,220
2018-06-16T04:24:35.408Z,225
2018-06-16T04:25:35.421Z,230
2018-06-16T04:26:35.679Z,245
2018-06-16T04:27:35.459Z,245
2018-06-16T04:28:35.916Z,250
2018-06-16T04:29:35.659Z,255
2018-06-16T04:30:35.675Z,250
2018-06-16T04:31:35.674Z,255
2018-06-16T04:32:35.911Z,260
2018-06-16T04:33:35.704Z,255
2018-06-16T04:34:35.669Z,265
2018-06-16T04:35:35.709Z,190
2018-06-16T04:36:35.688Z,170
2018-06-16T04:37:35.171Z,150
2018-06-16T04:38:35.452Z,155
2018-06-16T04:39:35.438Z,180
2018-06-16T04:40:35.436Z,205
2018-06-16T04:41:35.702Z,215
2018-06-16T04:42:35.694Z,220
2018-06-16T04:43:35.741Z,220
2018-06-16T04:44:35.447Z,215
2018-06-16T04:45:36.015Z,205
2018-06-16T04:46:35.459Z,190
2018-06-16T04:47:35.243Z,180
2018-06-16T04:48:35.486Z,300
2018-06-16T04:49:35.980Z,300
2018-06-16T04:50:36.316Z,305
2018-06-16T04:51:35.999Z,310
2018-06-16T04:52:35.748Z,315
2018-06-16T04:53:35.733Z,325
2018-06-16T04:54:35.487Z,330
2018-06-16T04:55:35.485Z,160
2018-06-16T04:56:35.749Z,165
2018-06-16T04:57:35.750Z,165
2018-06-16T04:58:35.749Z,165
2018-06-16T04:59:35.252Z,165
2018-06-16T05:00:36.032Z,170
2018-06-16T05:01:35.776Z,170
2018-06-16T05:02:35.772Z,170
2018-06-16T05:03:35.516Z,170
2018-06-16T05:04:35.765Z,170
2018-06-16T05:05:35.798Z,170
2018-06-16T05:06:35.785Z,170
2018-06-16T05:07:36.041Z,170
2018-06-16T05:08:35.325Z,175
2018-06-16T05:09:35.526Z,345
2018-06-16T05:10:35.537Z,345
2018-06-16T05:11:36.055Z,350
2018-06-16T05:12:35.822Z,355
2018-06-16T05:13:35.589Z,360
2018-06-16T05:14:35.538Z,365
2018-06-16T05:15:35.574Z,355
2018-06-16T05:16:36.144Z,375
2018-06-16T05:17:35.804Z,370
2018-06-16T05:18:35.588Z,375
2018-06-16T05:19:35.819Z,375
2018-06-16T05:20:35.566Z,375
2018-06-16T05:21:36.082Z,380
2018-06-16T05:22:36.073Z,380
2018-06-16T05:23:35.821Z,380
2018-06-16T05:24:35.840Z,380
2018-06-16T05:25:35.833Z,390
2018-06-16T05:26:35.841Z,390
2018-06-16T05:27:35.586Z,385
2018-06-16T05:28:35.841Z,385
2018-06-16T05:29:35.856Z,390
2018-06-16T05:30:35.617Z,390
2018-06-16T05:31:35.347Z,395
2018-06-16T05:32:35.617Z,400
2018-06-16T05:33:36.155Z,400
2018-06-16T05:34:36.147Z,395
2018-06-16T05:35:36.198Z,400
2018-06-16T05:36:35.892Z,400
2018-06-16T05:37:35.890Z,400
2018-06-16T05:38:35.737Z,405
2018-06-16T05:39:36.155Z,410
2018-06-16T05:40:35.907Z,410
2018-06-16T05:41:35.926Z,415
2018-06-16T05:42:36.197Z,410
2018-06-16T05:43:39.749Z,410
2018-06-16T05:44:36.196Z,410
2018-06-16T05:45:35.691Z,410
2018-06-16T05:46:36.200Z,420
2018-06-16T05:47:35.952Z,415
2018-06-16T05:48:36.205Z,415
2018-06-16T05:49:35.463Z,410
2018-06-16T05:50:35.495Z,415
2018-06-16T05:51:36.240Z,410
2018-06-16T05:52:35.731Z,415
2018-06-16T05:53:35.753Z,410
2018-06-16T05:54:35.784Z,410
2018-06-16T05:55:35.749Z,410
2018-06-16T05:56:35.756Z,410
2018-06-16T05:57:36.298Z,410
2018-06-16T05:58:35.773Z,410
2018-06-16T05:59:36.297Z,415
2018-06-16T06:00:36.026Z,415
2018-06-16T06:01:36.300Z,415
2018-06-16T06:02:36.053Z,415
2018-06-16T06:03:35.802Z,415
2018-06-16T06:04:36.330Z,415
2018-06-16T06:05:35.819Z,420
2018-06-16T06:06:35.833Z,420
2018-06-16T06:07:35.830Z,420
2018-06-16T06:08:36.336Z,425
2018-06-16T06:09:36.102Z,420
2018-06-16T06:10:36.616Z,425
2018-06-16T06:11:35.611Z,425
2018-06-16T06:12:35.907Z,425
2018-06-16T06:13:36.219Z,425
2018-06-16T06:14:35.895Z,425
2018-06-16T06:15:36.154Z,430
2018-06-16T06:16:35.640Z,425
2018-06-16T06:17:36.162Z,430
2018-06-16T06:18:35.911Z,430
2018-06-16T06:19:35.920Z,430
2018-06-16T06:20:35.674Z,430
2018-06-16T06:21:36.185Z,430
2018-06-16T06:22:35.947Z,435
2018-06-16T06:23:36.453Z,435
2018-06-16T06:24:36.458Z,435
2018-06-16T06:25:36.207Z,375
2018-06-16T06:26:35.966Z,435
2018-06-16T06:27:36.221Z,435
2018-06-16T06:28:35.737Z,435
2018-06-16T06:29:36.480Z,430
2018-06-16T06:30:36.496Z,430
2018-06-16T06:31:36.252Z,430
2018-06-16T06:32:36.044Z,440
2018-06-16T06:33:36.266Z,435
2018-06-16T06:34:36.297Z,440
2018-06-16T06:35:35.774Z,430
2018-06-16T06:36:36.286Z,430
2018-06-16T06:37:36.297Z,430
2018-06-16T06:38:36.325Z,430
2018-06-16T06:39:36.570Z,435
2018-06-16T06:40:36.316Z,435
2018-06-16T06:41:36.567Z,430
2018-06-16T06:42:36.095Z,430
2018-06-16T06:43:36.711Z,430
2018-06-16T06:44:36.620Z,430
2018-06-16T06:45:36.614Z,430
2018-06-16T06:46:36.107Z,430
2018-06-16T06:47:36.385Z,425
2018-06-16T06:48:36.126Z,425
2018-06-16T06:49:35.907Z,420
2018-06-16T06:50:36.278Z,415
2018-06-16T06:51:36.411Z,410
2018-06-16T06:52:36.167Z,405
2018-06-16T06:53:35.938Z,395
2018-06-16T06:54:36.682Z,395
2018-06-16T06:55:36.693Z,385
2018-06-16T06:56:36.192Z,390
2018-06-16T06:57:35.944Z,375
2018-06-16T06:58:36.448Z,375
2018-06-16T06:59:35.968Z,380
2018-06-16T07:00:35.703Z,390
2018-06-16T07:01:35.759Z,390
2018-06-16T07:02:36.476Z,390
2018-06-16T07:03:36.488Z,390
2018-06-16T07:04:36.506Z,385
2018-06-16T07:05:36.525Z,400
2018-06-16T07:06:36.261Z,415
2018-06-16T07:07:36.776Z,425
2018-06-16T07:08:36.535Z,425
2018-06-16T07:09:36.308Z,425
2018-06-16T07:10:36.412Z,425
2018-06-16T07:11:36.049Z,425
2018-06-16T07:12:36.049Z,425
2018-06-16T07:13:36.820Z,440
2018-06-16T07:14:36.086Z,425
2018-06-16T07:15:36.577Z,420
2018-06-16T07:16:36.333Z,420
2018-06-16T07:17:36.086Z,415
2018-06-16T07:18:36.624Z,415
2018-06-16T07:19:36.874Z,420
2018-06-16T07:20:36.105Z,425
2018-06-16T07:21:36.399Z,430
2018-06-16T07:22:36.406Z,430
2018-06-16T07:23:37.175Z,430
2018-06-16T07:24:36.387Z,425
2018-06-16T07:25:36.895Z,425
2018-06-16T07:26:36.403Z,425
2018-06-16T07:27:36.698Z,425
2018-06-16T07:28:36.684Z,425
2018-06-16T07:29:36.439Z,430
2018-06-16T07:30:36.509Z,425
2018-06-16T07:31:36.472Z,425
2018-06-16T07:32:36.233Z,425
2018-06-16T07:33:36.745Z,425
2018-06-16T07:34:36.228Z,425
2018-06-16T07:35:36.746Z,425
2018-06-16T07:36:36.235Z,425
2018-06-16T07:37:36.525Z,425
2018-06-16T07:38:36.759Z,425
2018-06-16T07:39:36.009Z,430
2018-06-16T07:40:36.641Z,425
2018-06-16T07:41:36.426Z,425
2018-06-16T07:42:37.071Z,425
2018-06-16T07:43:36.571Z,425
2018-06-16T07:44:37.082Z,420
2018-06-16T07:45:36.583Z,415
2018-06-16T07:46:36.832Z,420
2018-06-16T07:47:36.840Z,420
2018-06-16T07:48:36.846Z,415
2018-06-16T07:49:37.114Z,415
2018-06-16T07:50:37.131Z,415
2018-06-16T07:51:36.874Z,415
2018-06-16T07:52:37.241Z,415
2018-06-16T07:53:37.162Z,415
2018-06-16T07:54:36.985Z,420
2018-06-16T07:55:37.640Z,415
2018-06-16T07:56:36.899Z,410
2018-06-16T07:57:36.412Z,410
2018-06-16T07:58:36.929Z,410
2018-06-16T07:59:36.945Z,410
2018-06-16T08:00:36.708Z,405
2018-06-16T08:01:36.940Z,405
2018-06-16T08:02:36.706Z,405
2018-06-16T08:03:36.978Z,405
2018-06-16T08:04:36.982Z,405
2018-06-16T08:05:36.478Z,405
2018-06-16T08:06:37.289Z,400
2018-06-16T08:07:37.108Z,405
2018-06-16T08:08:37.004Z,410
2018-06-16T08:09:37.178Z,405
2018-06-16T08:10:37.277Z,395
2018-06-16T08:11:37.054Z,395
2018-06-16T08:12:37.065Z,390
2018-06-16T08:13:36.797Z,395
2018-06-16T08:14:37.864Z,390
2018-06-16T08:15:36.806Z,395
2018-06-16T08:16:36.833Z,390
2018-06-16T08:17:36.608Z,390
2018-06-16T08:18:36.595Z,390
2018-06-16T08:19:37.103Z,390
2018-06-16T08:20:36.616Z,385
2018-06-16T08:21:36.861Z,385
2018-06-16T08:22:37.132Z,385
2018-06-16T08:23:37.140Z,385
2018-06-16T08:24:37.288Z,380
2018-06-16T08:25:37.412Z,380
2018-06-16T08:26:37.157Z,380
2018-06-16T08:27:37.410Z,380
2018-06-16T08:28:37.440Z,380
2018-06-16T08:29:36.923Z,380
2018-06-16T08:30:36.927Z,380
2018-06-16T08:31:37.198Z,375
2018-06-16T08:32:36.950Z,375
2018-06-16T08:33:36.707Z,375
2018-06-16T08:34:37.238Z,375
2018-06-16T08:35:36.982Z,385
2018-06-16T08:36:37.069Z,375
2018-06-16T08:37:37.261Z,375
2018-06-16T08:38:37.275Z,375
2018-06-16T08:39:37.007Z,375
2018-06-16T08:40:37.083Z,370
2018-06-16T08:41:37.299Z,375
2018-06-16T08:42:37.040Z,370
2018-06-16T08:43:37.309Z,370
2018-06-16T08:44:37.305Z,365
2018-06-16T08:45:37.096Z,365
2018-06-16T08:46:37.341Z,360
2018-06-16T08:47:37.323Z,355
2018-06-16T08:48:37.110Z,355
2018-06-16T08:49:37.084Z,355
2018-06-16T08:50:37.679Z,355
2018-06-16T08:51:36.866Z,355
2018-06-16T08:52:37.365Z,360
2018-06-16T08:53:37.647Z,360
2018-06-16T08:54:37.143Z,360
2018-06-16T08:55:38.456Z,360
2018-06-16T08:56:36.634Z,365
2018-06-16T08:57:37.427Z,365
2018-06-16T08:58:37.457Z,360
2018-06-16T08:59:37.172Z,360
2018-06-16T09:00:36.983Z,365
2018-06-16T09:01:37.696Z,360
2018-06-16T09:02:37.193Z,360
2018-06-16T09:03:37.693Z,355
2018-06-16T09:04:37.268Z,355
2018-06-16T09:05:36.974Z,355
2018-06-16T09:06:37.488Z,350
2018-06-16T09:07:37.525Z,345
2018-06-16T09:08:37.771Z,335
2018-06-16T09:09:37.805Z,330
2018-06-16T09:10:37.529Z,330
2018-06-16T09:11:37.099Z,330
2018-06-16T09:12:37.270Z,330
2018-06-16T09:13:37.033Z,325
2018-06-16T09:14:37.946Z,330
2018-06-16T09:15:37.289Z,330
2018-06-16T09:16:37.576Z,330
2018-06-16T09:17:37.581Z,330
2018-06-16T09:18:37.587Z,325
2018-06-16T09:19:37.320Z,325
2018-06-16T09:20:37.309Z,320
2018-06-16T09:21:37.610Z,330
2018-06-16T09:22:37.492Z,325
2018-06-16T09:23:37.615Z,325
2018-06-16T09:24:37.609Z,325
2018-06-16T09:25:37.369Z,320
2018-06-16T09:26:37.630Z,325
2018-06-16T09:27:37.875Z,325
2018-06-16T09:28:37.395Z,330
2018-06-16T09:29:37.693Z,330
2018-06-16T09:30:37.895Z,330
2018-06-16T09:31:37.901Z,330
2018-06-16T09:32:37.973Z,335
2018-06-16T09:33:37.400Z,335
2018-06-16T09:34:37.702Z,335
2018-06-16T09:35:37.173Z,335
2018-06-16T09:36:37.408Z,335
2018-06-16T09:37:37.180Z,340
2018-06-16T09:38:37.446Z,340
2018-06-16T09:39:37.450Z,340
2018-06-16T09:40:37.952Z,340
2018-06-16T09:41:37.952Z,340
2018-06-16T09:42:37.985Z,340
2018-06-16T09:43:37.501Z,340
2018-06-16T09:44:39.711Z,340
2018-06-16T09:45:37.745Z,340
2018-06-16T09:46:37.753Z,335
2018-06-16T09:47:37.976Z,340
2018-06-16T09:48:37.503Z,335
2018-06-16T09:49:37.480Z,340
2018-06-16T09:50:38.117Z,340
2018-06-16T09:51:37.786Z,345
2018-06-16T09:52:37.511Z,345
2018-06-16T09:53:37.546Z,345
2018-06-16T09:54:38.020Z,345
2018-06-16T09:55:37.796Z,345
2018-06-16T09:56:37.011Z,345
2018-06-16T09:57:37.295Z,345
2018-06-16T09:58:37.820Z,350
2018-06-16T09:59:38.039Z,350
2018-06-16T10:00:37.817Z,350
2018-06-16T10:01:37.563Z,350
2018-06-16T10:02:37.812Z,350
2018-06-16T10:03:37.846Z,350
2018-06-16T10:04:37.575Z,350
2018-06-16T10:05:37.588Z,345
2018-06-16T10:06:37.827Z,345
2018-06-16T10:07:37.612Z,335
2018-06-16T10:08:37.862Z,335
2018-06-16T10:09:37.766Z,335
2018-06-16T10:10:37.882Z,335
2018-06-16T10:11:38.120Z,340
2018-06-16T10:12:38.120Z,325
2018-06-16T10:13:38.117Z,330
2018-06-16T10:14:38.155Z,325
2018-06-16T10:15:38.124Z,325
2018-06-16T10:16:37.893Z,325
2018-06-16T10:17:37.916Z,325
2018-06-16T10:18:37.932Z,330
2018-06-16T10:19:37.651Z,330
2018-06-16T10:20:37.925Z,330
2018-06-16T10:21:37.673Z,315
2018-06-16T10:22:37.685Z,310
2018-06-16T10:53:53.910Z,300
2018-06-16T10:54:53.945Z,295
2018-06-16T10:55:54.168Z,295
2018-06-16T10:56:53.913Z,290
2018-06-16T10:57:53.925Z,290
2018-06-16T10:58:53.940Z,290
2018-06-16T10:59:54.436Z,290
2018-06-16T11:00:54.200Z,285
2018-06-16T11:01:54.440Z,285
2018-06-16T11:02:53.687Z,285
2018-06-16T11:03:54.216Z,285
2018-06-16T11:04:53.960Z,290
2018-06-16T11:05:54.495Z,290
2018-06-16T11:06:53.983Z,285
2018-06-16T11:07:54.462Z,290
2018-06-16T11:08:54.225Z,290
2018-06-16T11:09:54.239Z,290
2018-06-16T11:10:53.975Z,285
2018-06-16T11:11:54.500Z,290
2018-06-16T11:12:54.251Z,295
2018-06-16T11:13:53.993Z,290
2018-06-16T11:14:54.259Z,290
2018-06-16T11:15:54.268Z,295
2018-06-16T11:16:53.772Z,290
2018-06-16T11:17:54.262Z,290
2018-06-16T11:18:54.549Z,290
2018-06-16T11:19:54.027Z,290
2018-06-16T11:20:54.027Z,275
2018-06-16T11:21:54.048Z,290
2018-06-16T11:22:54.282Z,285
2018-06-16T11:23:54.560Z,285
2018-06-16T11:24:54.628Z,290
2018-06-16T11:25:54.565Z,280
2018-06-16T11:26:54.308Z,295
2018-06-16T11:27:54.578Z,300
2018-06-16T11:28:54.060Z,300
2018-06-16T11:29:54.069Z,300
2018-06-16T11:30:54.333Z,285
2018-06-16T11:31:54.330Z,285
2018-06-16T11:32:54.089Z,285
2018-06-16T11:33:54.102Z,285
2018-06-16T11:34:54.090Z,290
2018-06-16T11:35:54.638Z,285
2018-06-16T11:36:54.602Z,280
2018-06-16T11:37:53.617Z,285
2018-06-16T11:38:54.156Z,295
2018-06-16T11:39:54.626Z,285
2018-06-16T11:40:54.561Z,290
2018-06-16T11:41:54.149Z,290
2018-06-16T11:42:54.653Z,290
2018-06-16T11:43:54.434Z,295
2018-06-16T11:44:53.897Z,290
2018-06-16T11:45:54.684Z,285
2018-06-16T11:46:54.695Z,285
2018-06-16T11:47:53.669Z,290
2018-06-16T11:48:54.712Z,280
2018-06-16T11:49:54.210Z,275
2018-06-16T11:50:54.690Z,275
2018-06-16T11:51:54.199Z,245
2018-06-16T11:52:54.477Z,275
2018-06-16T11:53:54.499Z,295
2018-06-16T11:54:54.723Z,295
2018-06-16T11:55:54.220Z,300
2018-06-16T11:56:54.471Z,305
2018-06-16T11:57:54.719Z,305
2018-06-16T11:58:54.484Z,310
2018-06-16T11:59:54.243Z,310
2018-06-16T12:00:54.260Z,310
2018-06-16T12:01:54.585Z,310
2018-06-16T12:02:54.263Z,315
2018-06-16T12:03:54.266Z,310
2018-06-16T12:04:54.006Z,305
2018-06-16T12:05:54.606Z,300
2018-06-16T12:06:54.813Z,300
2018-06-16T12:07:54.517Z,300
2018-06-16T12:08:54.305Z,300
2018-06-16T12:09:54.546Z,300
2018-06-16T12:10:54.309Z,305
2018-06-16T12:11:54.811Z,305
2018-06-16T12:12:54.319Z,310
2018-06-16T12:13:54.097Z,305
2018-06-16T12:14:54.340Z,305
2018-06-16T12:15:54.349Z,305
2018-06-16T12:16:54.628Z,305
2018-06-16T12:17:54.596Z,265
2018-06-16T12:18:54.913Z,265
2018-06-16T12:19:54.388Z,270
2018-06-16T12:20:54.360Z,290
2018-06-16T12:21:54.361Z,300
2018-06-16T12:22:54.376Z,310
2018-06-16T12:23:54.630Z,305
2018-06-16T12:24:54.663Z,305
2018-06-16T12:25:54.652Z,305
2018-06-16T12:26:54.653Z,310
2018-06-16T12:27:54.899Z,315
2018-06-16T12:28:54.678Z,320
2018-06-16T12:29:54.806Z,315
2018-06-16T12:30:54.911Z,285
2018-06-16T12:31:54.418Z,280
2018-06-16T12:32:54.433Z,295
2018-06-16T12:33:54.940Z,315
2018-06-16T12:34:54.199Z,305
2018-06-16T12:35:54.971Z,275
2018-06-16T12:36:54.684Z,280
2018-06-16T12:37:54.708Z,290
2018-06-16T12:38:54.487Z,305
2018-06-16T12:39:54.724Z,320
2018-06-16T12:40:54.961Z,315
2018-06-16T12:41:54.467Z,315
2018-06-16T12:42:54.740Z,315
2018-06-16T12:43:54.481Z,285
2018-06-16T12:44:55.005Z,290
2018-06-16T12:45:54.550Z,290
2018-06-16T12:46:54.536Z,295
2018-06-16T12:47:54.751Z,305
2018-06-16T12:48:54.756Z,310
2018-06-16T12:49:54.771Z,315
2018-06-16T12:50:54.956Z,335
2018-06-16T12:51:54.806Z,340
2018-06-16T12:52:54.528Z,350
2018-06-16T12:53:54.814Z,340
2018-06-16T12:54:54.851Z,340
2018-06-16T12:55:54.292Z,340
2018-06-16T12:56:55.027Z,340
2018-06-16T12:57:55.331Z,340
2018-06-16T12:58:54.841Z,340
2018-06-16T12:59:54.579Z,340
2018-06-16T13:00:54.838Z,345
2018-06-16T13:01:54.843Z,340
2018-06-16T13:02:55.099Z,350
2018-06-16T13:03:54.852Z,320
2018-06-16T13:04:54.603Z,320
2018-06-16T13:05:54.611Z,320
2018-06-16T13:06:54.648Z,315
2018-06-16T13:07:55.138Z,315
2018-06-16T13:08:54.883Z,330
2018-06-16T13:09:55.140Z,350
2018-06-16T13:10:54.886Z,350
2018-06-16T13:11:54.898Z,355
2018-06-16T13:12:55.137Z,360
2018-06-16T13:13:54.405Z,360
2018-06-16T13:14:54.404Z,360
2018-06-16T13:15:54.657Z,355
2018-06-16T13:16:54.422Z,355
2018-06-16T13:17:54.936Z,360
2018-06-16T13:18:54.927Z,360
2018-06-16T13:19:54.955Z,355
2018-06-16T13:20:54.697Z,355
2018-06-16T13:21:54.711Z,350
2018-06-16T13:22:54.970Z,350
2018-06-16T13:23:54.981Z,350
2018-06-16T13:24:54.715Z,340
2018-06-16T13:25:55.226Z,335
2018-06-16T13:26:55.235Z,330
2018-06-16T13:27:54.988Z,330
2018-06-16T13:28:55.024Z,325
2018-06-16T13:29:55.008Z,325
2018-06-16T13:30:54.763Z,325
2018-06-16T13:31:55.027Z,320
2018-06-16T13:32:55.277Z,320
2018-06-16T13:33:55.059Z,325
2018-06-16T13:34:54.762Z,340
2018-06-16T13:35:55.274Z,350
2018-06-16T13:36:55.299Z,345
2018-06-16T13:37:54.795Z,350
2018-06-16T13:38:55.061Z,370
2018-06-16T13:39:55.088Z,370
2018-06-16T13:40:55.060Z,395
2018-06-16T13:41:55.119Z,400
2018-06-16T13:42:55.080Z,400
2018-06-16T13:43:55.635Z,400
2018-06-16T13:44:55.085Z,400
2018-06-16T13:45:55.062Z,400
2018-06-16T13:46:54.830Z,395
2018-06-16T13:47:55.096Z,385
2018-06-16T13:48:55.089Z,385
2018-06-16T13:49:55.087Z,375
2018-06-16T13:50:55.307Z,360
2018-06-16T13:51:54.892Z,350
2018-06-16T13:52:55.148Z,355
2018-06-16T13:53:55.411Z,350
2018-06-16T13:54:55.439Z,350
2018-06-16T13:55:55.427Z,355
2018-06-16T13:56:55.630Z,350
2018-06-16T13:57:55.170Z,345
2018-06-16T13:58:55.169Z,345
2018-06-16T13:59:54.658Z,355
2018-06-16T14:00:55.170Z,350
2018-06-16T14:01:55.176Z,350
2018-06-16T14:02:55.442Z,350
2018-06-16T14:03:55.219Z,350
2018-06-16T14:04:55.488Z,345
2018-06-16T14:05:55.220Z,350
2018-06-16T14:06:55.297Z,355
2018-06-16T14:07:54.998Z,355
2018-06-16T14:08:55.494Z,360
2018-06-16T14:09:55.506Z,360
2018-06-16T14:10:55.492Z,360
2018-06-16T14:11:55.248Z,360
2018-06-16T14:12:55.508Z,360
2018-06-16T14:13:55.277Z,360
2018-06-16T14:14:55.810Z,360
2018-06-16T14:15:55.487Z,365
2018-06-16T14:16:55.695Z,360
2018-06-16T14:17:55.181Z,360
2018-06-16T14:18:56.514Z,355
2018-06-16T14:19:55.205Z,355
2018-06-16T14:20:55.763Z,355
2018-06-16T14:21:55.326Z,355
2018-06-16T14:22:55.066Z,355
2018-06-16T14:23:55.603Z,355
2018-06-16T14:24:55.596Z,350
2018-06-16T14:25:55.515Z,350
2018-06-16T14:26:55.320Z,350
2018-06-16T14:27:55.350Z,355
2018-06-16T14:28:55.376Z,355
2018-06-16T14:29:55.649Z,355
2018-06-16T14:30:55.380Z,355